Mr Thomas — WDD7163 — position and weather

sailwx.info

Track history (hours):
 
Tides and Currents Weather Stations Pressure Air Temp Water Temp Dewpoint Dewpoint Depression Visibility Wind Speed Wind Dir Waves Ship Positions

Mr Thomas

Owner: CENTRAL BOAT RENTALS, BERWICK, LA. More information available from US FCC via Universal Licensing System and Coast Guard Vessel Documentation Center.

Last reported at 2017-Nov-19 16:21 UTC. Time now 2017-Nov-21 15:41 UTC.
Position N 29°45' W 095°10'.

Length 21 m; draft 2.5 m.

Type: Tug. MMSI: 367182730.

Date/timePositionNaut miles runAvg speedWind from/ knotsBaromVisibWave heightAir tempDewpointWater temp
2017-Nov-19 16:21N 29°45' W 095°10'  
2017-Nov-17 03:48N 29°44' W 095°03'2 7.2
2017-Nov-17 03:28N 29°43' W 095°01'3 7.5
2017-Nov-17 03:00N 29°40' W 094°59'4 8.5
2017-Nov-17 02:31N 29°36' W 094°57'4 8.5
2017-Nov-17 01:59N 29°33' W 094°54'2 0.4
2017-Nov-16 20:25N 29°31' W 094°53'2 5.0
2017-Nov-16 20:00N 29°32' W 094°54'3 5.3
2017-Nov-16 19:30N 29°35' W 094°56'3 5.4
2017-Nov-16 19:00N 29°37' W 094°57'3 5.5
2017-Nov-16 18:30N 29°40' W 094°58'3 5.4
2017-Nov-16 18:00N 29°42' W 094°60'1 1.5
2017-Nov-16 17:29N 29°42' W 095°01'2 3.7
2017-Nov-16 16:59N 29°44' W 095°02'2 3.6
2017-Nov-16 16:29N 29°44' W 095°04'  
2017-Nov-10 22:58N 29°45' W 095°06'2 3.5
2017-Nov-10 22:20N 29°44' W 095°04'2 5.6
2017-Nov-10 22:00N 29°44' W 095°02'2 2.9
2017-Nov-10 21:29N 29°42' W 095°01'0 0.3
2017-Nov-10 20:58N 29°42' W 095°01'2 5.2
2017-Nov-10 20:30N 29°41' W 094°59'3 6.6
2017-Nov-10 20:01N 29°38' W 094°58'3 6.7
2017-Nov-10 19:31N 29°35' W 094°56'3 6.9
2017-Nov-10 19:01N 29°32' W 094°54'71 4.4
2017-Nov-10 02:50N 30°04' W 093°41'2 5.1
2017-Nov-10 02:31N 30°04' W 093°39'3 5.5
2017-Nov-10 02:00N 30°04' W 093°36'3 5.4
2017-Nov-10 01:31N 30°04' W 093°33'3 5.3
2017-Nov-10 01:01N 30°04' W 093°30'2 4.2
2017-Nov-10 00:30N 30°04' W 093°27'3 5.3
2017-Nov-10 00:00N 30°04' W 093°24'2 5.0
2017-Nov-09 23:30N 30°04' W 093°21'2 4.9
2017-Nov-09 23:00N 30°06' W 093°19'2 3.1
2017-Nov-09 22:29N 30°05' W 093°18'1 1.3
2017-Nov-09 22:00N 30°05' W 093°17'1 2.5
2017-Nov-09 21:30N 30°04' W 093°16'2 3.8
2017-Nov-09 21:01N 30°02' W 093°15'3 5.3
2017-Nov-09 20:30N 29°60' W 093°13'3 5.9
2017-Nov-09 20:00N 29°58' W 093°11'3 5.3
2017-Nov-09 19:30N 29°56' W 093°09'3 5.6
2017-Nov-09 19:01N 29°56' W 093°05'  
Track history (hours):
 
Tides and Currents Weather Stations Pressure Air Temp Water Temp Dewpoint Dewpoint Depression Visibility Wind Speed Wind Dir Waves Ship Positions

Mr Thomas

Owner: CENTRAL BOAT RENTALS, BERWICK, LA. More information available from US FCC via Universal Licensing System and Coast Guard Vessel Documentation Center.

Last reported at 2017-Nov-19 16:21 UTC. Time now 2017-Nov-21 15:41 UTC.
Position N 29°45' W 095°10'.

Length 21 m; draft 2.5 m.

Type: Tug. MMSI: 367182730.

Date/timePositionNaut miles runAvg speedWind from/ knotsBaromVisibWave heightAir tempDewpointWater temp
2017-Nov-19 16:21N 29°45' W 095°10'  
2017-Nov-17 03:48N 29°44' W 095°03'2 7.2
2017-Nov-17 03:28N 29°43' W 095°01'3 7.5
2017-Nov-17 03:00N 29°40' W 094°59'4 8.5
2017-Nov-17 02:31N 29°36' W 094°57'4 8.5
2017-Nov-17 01:59N 29°33' W 094°54'2 0.4
2017-Nov-16 20:25N 29°31' W 094°53'2 5.0
2017-Nov-16 20:00N 29°32' W 094°54'3 5.3
2017-Nov-16 19:30N 29°35' W 094°56'3 5.4
2017-Nov-16 19:00N 29°37' W 094°57'3 5.5
2017-Nov-16 18:30N 29°40' W 094°58'3 5.4
2017-Nov-16 18:00N 29°42' W 094°60'1 1.5
2017-Nov-16 17:29N 29°42' W 095°01'2 3.7
2017-Nov-16 16:59N 29°44' W 095°02'2 3.6
2017-Nov-16 16:29N 29°44' W 095°04'  
2017-Nov-10 22:58N 29°45' W 095°06'2 3.5
2017-Nov-10 22:20N 29°44' W 095°04'2 5.6
2017-Nov-10 22:00N 29°44' W 095°02'2 2.9
2017-Nov-10 21:29N 29°42' W 095°01'0 0.3
2017-Nov-10 20:58N 29°42' W 095°01'2 5.2
2017-Nov-10 20:30N 29°41' W 094°59'3 6.6
2017-Nov-10 20:01N 29°38' W 094°58'3 6.7
2017-Nov-10 19:31N 29°35' W 094°56'3 6.9
2017-Nov-10 19:01N 29°32' W 094°54'71 4.4
2017-Nov-10 02:50N 30°04' W 093°41'2 5.1
2017-Nov-10 02:31N 30°04' W 093°39'3 5.5
2017-Nov-10 02:00N 30°04' W 093°36'3 5.4
2017-Nov-10 01:31N 30°04' W 093°33'3 5.3
2017-Nov-10 01:01N 30°04' W 093°30'2 4.2
2017-Nov-10 00:30N 30°04' W 093°27'3 5.3
2017-Nov-10 00:00N 30°04' W 093°24'2 5.0
2017-Nov-09 23:30N 30°04' W 093°21'2 4.9
2017-Nov-09 23:00N 30°06' W 093°19'2 3.1
2017-Nov-09 22:29N 30°05' W 093°18'1 1.3
2017-Nov-09 22:00N 30°05' W 093°17'1 2.5
2017-Nov-09 21:30N 30°04' W 093°16'2 3.8
2017-Nov-09 21:01N 30°02' W 093°15'3 5.3
2017-Nov-09 20:30N 29°60' W 093°13'3 5.9
2017-Nov-09 20:00N 29°58' W 093°11'3 5.3
2017-Nov-09 19:30N 29°56' W 093°09'3 5.6
2017-Nov-09 19:01N 29°56' W 093°05'  

Dump ship's entire track history